Aachen, Germany

8:07 PM CEST on October 01, 2014 (GMT +0200)
Hitfeld | Change Station
CLOSE
Current Station
Personal Weather Station
Location: Aachen, NORDRHEIN-WESTFALEN
Elevation: 866 ft
Nearby Weather Stations

Elev 866 ft 50.74 °N, 6.13 °E | Updated 0 second ago

Clear
Clear
57.9 °F
Feels Like 57.9 °F
N
0.0
Wind Variable Wind from NE
Gusts 0.0 mph

Today
High -- | Low -- °F
--% Chance of Precip.
Yesterday
High -- | Low -- °F
Precip. -- in
7:35 AM 7:14 PM
Waxing Crescent, 49% visible
Pressure 30.27 in
Visibility 6.2 miles
Clouds
Dew Point 55 °F
Humidity 91%
Rainfall 0.00 in
Snow Depth Not available.
UV 0.0 out of 12
Pollen Not available.
Air Quality Not available.
Flu Activity Not available.
METAR EHBK 301825Z AUTO 16002KT 9999 NSC 15/14 Q1025 NOSIG

More Conditions Fewer Conditions

Pressure 30.27 in
Visibility 6.2 miles
Clouds
Dew Point 55 °F
Humidity 91%
Rainfall 0.00 in
Snow Depth Not available.
UV 0.0 out of 12
Pollen Not available.
Air Quality Not available.
Flu Activity Not available.
METAR EHBK 301825Z AUTO 16002KT 9999 NSC 15/14 Q1025 NOSIG

More Conditions Fewer Conditions

10-Day Weather Forecast

Almanac

Astronomy

Oct. 01, 2014 Rise Set
Actual Time 7:35 AM CEST 7:14 PM CEST
Civil Twilight 7:02 AM CEST 7:46 PM CEST
Nautical Twilight 6:24 AM CEST 8:24 PM CEST
Astronomical Twilight 5:45 AM CEST 9:03 PM CEST
Moon 2:51 PM CEST No Moon Set
Length of Visible Light 12h 43m
Length of Day
11h 38m
Tomorrow will be 3m 48s shorter.
Waxing Crescent, 49% of the Moon is Illuminated
Today
Waxing Crescent
Oct 1
First Quarter
Oct 8
Full
Oct 15
Last Quarter
Oct 23
New

Today's Extremes

Country Highs Country Lows

Community

WunderPhotos

Upload Photos

1,758,005 photos uploaded!

WunderBlogs® & News

By Dr. Jeff Masters
Director of Meteorology, Weather Underground
By Kari Strenfel
Meteorologist, Weather Underground
By Christopher C. Burt
Weather Historian, Weather Underground
October 1, 2014
October 1, 2014
October 1, 2014

Nearby

Snow Depth

Not available.

Earthquake Activity

City Distance Mag. Time & Date
No recent earthquake activity has been reported nearby.
Minimum magnitude displayed is 2.5.

Coastal Water Temperatures

Place Temperature
No Stations Reporting

Nearby Weather Stations